Time;durP1;ratioP1;P1;durP2;ratioP2;P2;SDS_P1;SDS_P2;PMS_P1;PMS_P2;Temp;Humidity;BMP_temperature;BMP_pressure;BME280_temperature;BME280_humidity;BME280_pressure;Samples;Min_cycle;Max_cycle;Signal;HPM_P1;HPM_P2
2022/08/16 00:02:23;;;;;;;11.90;10.70;;;;;;;22.57;64.93;99594.27;110745;1253;22952;-76
2022/08/16 00:04:52;;;;;;;11.50;10.30;;;;;;;22.55;64.85;99594.30;110638;1253;22190;-76
2022/08/16 00:07:28;;;;;;;13.80;12.20;;;;;;;22.53;64.98;99592.86;110658;1253;23671;-76
2022/08/16 00:09:58;;;;;;;10.80;9.70;;;;;;;22.53;65.01;99594.25;110670;1253;23577;-75
2022/08/16 00:12:29;;;;;;;14.40;12.10;;;;;;;22.51;64.95;99597.74;110698;1251;21998;-76
2022/08/16 00:15:04;;;;;;;11.30;10.20;;;;;;;22.46;64.95;99600.42;110666;1250;22559;-76
2022/08/16 00:17:40;;;;;;;11.90;9.90;;;;;;;22.43;65.24;99602.41;110775;1250;21962;-75
2022/08/16 00:20:26;;;;;;;11.50;10.20;;;;;;;22.41;65.40;99604.34;110655;1250;22202;-76
2022/08/16 00:22:55;;;;;;;10.80;9.80;;;;;;;22.39;65.52;99606.70;110688;1251;22407;-76
2022/08/16 00:25:25;;;;;;;12.10;10.20;;;;;;;22.36;65.65;99609.86;110597;1250;21965;-74
2022/08/16 00:28:14;;;;;;;18.40;10.90;;;;;;;22.32;65.70;99605.21;109843;1250;21956;-76
2022/08/16 00:30:43;;;;;;;11.60;9.80;;;;;;;22.26;65.54;99608.64;110688;1250;21975;-76
2022/08/16 00:33:12;;;;;;;13.20;11.90;;;;;;;22.21;65.72;99608.94;110683;1250;22746;-76
2022/08/16 00:35:41;;;;;;;12.90;11.70;;;;;;;22.19;66.15;99611.73;110731;1250;21957;-76
2022/08/16 00:38:11;;;;;;;12.20;9.70;;;;;;;22.16;66.22;99616.17;110689;1250;23687;-76
2022/08/16 00:41:00;;;;;;;13.60;11.60;;;;;;;22.11;66.39;99613.98;110577;1253;21962;-76
2022/08/16 00:43:35;;;;;;;14.60;11.30;;;;;;;22.05;66.61;99608.08;110703;1250;23023;-76
2022/08/16 00:46:24;;;;;;;15.20;11.90;;;;;;;22.00;66.75;99602.89;110007;1257;23769;-75
2022/08/16 00:49:08;;;;;;;13.40;10.90;;;;;;;21.95;66.88;99606.59;110381;1257;21966;-76
2022/08/16 00:51:49;;;;;;;12.90;10.30;;;;;;;21.91;67.06;99612.09;110054;1259;23605;-76
2022/08/16 00:54:28;;;;;;;13.90;11.50;;;;;;;21.88;67.30;99611.15;110172;1257;21984;-76
2022/08/16 00:57:01;;;;;;;14.20;10.90;;;;;;;21.88;67.32;99614.11;110463;1257;23074;-76
2022/08/16 00:59:34;;;;;;;12.20;11.00;;;;;;;21.88;67.35;99614.00;110281;1257;23577;-76
2022/08/16 01:02:07;;;;;;;14.60;11.30;;;;;;;21.86;67.25;99616.70;110310;1258;22359;-76
2022/08/16 01:04:56;;;;;;;12.80;11.50;;;;;;;21.84;67.38;99619.30;110472;1250;22946;-76
2022/08/16 01:07:43;;;;;;;13.30;11.70;;;;;;;21.82;67.48;99619.03;110832;1250;23142;-76
2022/08/16 01:10:24;;;;;;;12.40;10.40;;;;;;;21.81;67.57;99618.98;110689;1250;23601;-75
2022/08/16 01:13:10;;;;;;;14.70;13.20;;;;;;;21.78;67.56;99617.92;110650;1250;21961;-76
2022/08/16 01:16:01;;;;;;;13.40;12.00;;;;;;;21.77;67.75;99619.11;110749;1250;23651;-76
2022/08/16 01:18:38;;;;;;;12.20;11.00;;;;;;;21.76;67.79;99618.83;110681;1250;23700;-77
2022/08/16 01:21:51;;;;;;;14.40;12.10;;;;;;;21.74;67.81;99619.20;110899;1250;22756;-76
2022/08/16 01:24:43;;;;;;;13.20;11.60;;;;;;;21.69;67.93;99615.39;110273;1257;21978;-75
2022/08/16 01:27:38;;;;;;;14.00;11.60;;;;;;;21.64;68.03;99613.75;110166;1257;22726;-75
2022/08/16 01:30:07;;;;;;;12.90;11.70;;;;;;;21.61;68.13;99616.42;110157;1257;21956;-76
2022/08/16 01:32:51;;;;;;;13.00;11.70;;;;;;;21.58;68.33;99617.73;110268;1259;23041;-75
2022/08/16 01:36:09;;;;;;;16.90;12.80;;;;;;;21.54;68.46;99618.58;110017;1257;23577;-77
2022/08/16 01:38:46;;;;;;;13.10;11.80;;;;;;;21.47;68.30;99613.69;110049;1259;21990;-77
2022/08/16 01:41:29;;;;;;;16.40;11.90;;;;;;;21.40;68.48;99615.94;110040;1257;21975;-77
2022/08/16 01:44:01;;;;;;;14.90;13.50;;;;;;;21.36;68.66;99614.90;110171;1257;22091;-76
2022/08/16 01:46:39;;;;;;;16.00;12.90;;;;;;;21.34;68.79;99612.34;110261;1258;22082;-76
2022/08/16 01:49:31;;;;;;;14.60;13.20;;;;;;;21.31;68.96;99615.20;109917;1261;23096;-76
2022/08/16 01:52:20;;;;;;;17.00;13.50;;;;;;;21.24;69.00;99621.25;109803;1257;23570;-76
2022/08/16 01:55:22;;;;;;;16.40;13.40;;;;;;;21.14;69.12;99623.10;110300;1256;23669;-77
2022/08/16 01:57:54;;;;;;;15.60;14.00;;;;;;;21.09;69.44;99618.60;110127;1259;23123;-77
2022/08/16 02:00:26;;;;;;;15.80;13.20;;;;;;;21.07;69.57;99624.23;110146;1257;22406;-75
2022/08/16 02:02:59;;;;;;;16.10;13.40;;;;;;;21.03;69.61;99625.53;110641;1250;21965;-76
2022/08/16 02:05:29;;;;;;;14.80;13.40;;;;;;;21.04;70.00;99624.68;110690;1250;21965;-76
2022/08/16 02:08:03;;;;;;;15.30;13.90;;;;;;;21.05;69.88;99622.77;110637;1254;23525;-76
2022/08/16 02:10:34;;;;;;;;;;;;;;;21.06;69.91;99621.15;110694;1253;23664;-76
2022/08/16 02:13:06;;;;;;;14.70;13.40;;;;;;;21.00;70.04;99617.66;110707;1250;21955;-77
2022/08/16 02:15:39;;;;;;;16.00;14.40;;;;;;;20.98;69.99;99618.35;110667;1250;23699;-76
2022/08/16 02:18:11;;;;;;;15.20;13.90;;;;;;;20.97;69.93;99617.15;110695;1250;21965;-76
2022/08/16 02:20:50;;;;;;;15.40;13.90;;;;;;;20.96;70.06;99619.44;110684;1250;23010;-76
2022/08/16 02:23:22;;;;;;;16.50;15.00;;;;;;;20.96;70.23;99616.88;110735;1250;22040;-76
2022/08/16 02:25:52;;;;;;;15.00;13.70;;;;;;;20.95;70.30;99613.91;110687;1250;21953;-76
2022/08/16 02:28:23;;;;;;;;;;;;;;;20.95;70.14;99617.52;110549;1250;21953;-76
2022/08/16 02:30:56;;;;;;;16.30;14.40;;;;;;;20.86;70.34;99617.36;110685;1250;22728;-76
2022/08/16 02:33:26;;;;;;;16.00;14.60;;;;;;;20.82;70.37;99613.09;110716;1250;21955;-76
2022/08/16 02:36:21;;;;;;;16.90;15.30;;;;;;;20.80;70.63;99614.46;110702;1250;23599;-76
2022/08/16 02:39:13;;;;;;;15.60;14.20;;;;;;;20.78;70.57;99615.66;110712;1250;21953;-76
2022/08/16 02:41:46;;;;;;;16.50;14.60;;;;;;;20.76;70.62;99615.00;110883;1250;23714;-76
2022/08/16 02:44:22;;;;;;;16.70;15.20;;;;;;;20.75;70.66;99617.20;110679;1250;21967;-77
2022/08/16 02:46:55;;;;;;;16.80;15.40;;;;;;;20.74;70.78;99615.90;110622;1251;22034;-76
2022/08/16 02:49:25;;;;;;;17.80;16.00;;;;;;;20.75;70.87;99622.45;110529;1250;23684;-76
2022/08/16 02:52:16;;;;;;;16.50;14.90;;;;;;;20.74;70.86;99622.61;110730;1250;23682;-76
2022/08/16 02:54:59;;;;;;;16.60;14.90;;;;;;;20.73;71.08;99620.44;110669;1250;22794;-76
2022/08/16 02:57:29;;;;;;;17.30;15.40;;;;;;;20.73;71.04;99628.11;110681;1250;21976;-75
2022/08/16 03:00:02;;;;;;;16.80;14.70;;;;;;;20.71;70.91;99630.41;110981;1250;23703;-76
2022/08/16 03:02:55;;;;;;;17.00;15.20;;;;;;;20.66;70.97;99627.14;110606;1251;22183;-76
2022/08/16 03:05:25;;;;;;;16.60;15.00;;;;;;;20.63;71.13;99624.14;110707;1250;21965;-76
2022/08/16 03:07:59;;;;;;;18.80;16.70;;;;;;;20.62;71.12;99629.02;110661;1251;21962;-76
2022/08/16 03:10:29;;;;;;;17.00;15.40;;;;;;;20.59;71.09;99632.10;110634;1251;24988;-76
2022/08/16 03:13:03;;;;;;;19.10;17.30;;;;;;;20.56;71.19;99636.67;110753;1251;21958;-76
2022/08/16 03:15:46;;;;;;;19.90;18.10;;;;;;;20.50;71.27;99633.16;110768;1250;23050;-76
2022/08/16 03:18:18;;;;;;;18.10;16.20;;;;;;;20.45;71.34;99627.08;110763;1250;23568;-76
2022/08/16 03:21:07;;;;;;;20.00;17.80;;;;;;;20.43;71.47;99630.65;110668;1250;22003;-75
2022/08/16 03:23:41;;;;;;;18.50;16.60;;;;;;;20.43;71.57;99637.23;110709;1250;21960;-76
2022/08/16 03:26:12;;;;;;;19.60;17.60;;;;;;;20.41;71.42;99632.71;110968;1250;23668;-76
2022/08/16 03:28:42;;;;;;;19.40;17.40;;;;;;;20.38;71.43;99629.52;111428;1250;21953;-76
2022/08/16 03:31:11;;;;;;;20.40;18.00;;;;;;;20.37;71.58;99632.84;110504;1250;23673;-76
2022/08/16 03:33:42;;;;;;;19.50;17.30;;;;;;;20.34;71.59;99630.06;110220;1257;24289;-77
2022/08/16 03:36:12;;;;;;;19.40;17.40;;;;;;;20.29;71.55;99626.79;110270;1256;21984;-77
2022/08/16 03:39:01;;;;;;;22.10;17.30;;;;;;;20.24;71.68;99629.56;110300;1256;21977;-76
2022/08/16 03:41:31;;;;;;;18.50;15.70;;;;;;;20.23;71.98;99626.97;110447;1256;21968;-76
2022/08/16 03:44:20;;;;;;;20.80;18.10;;;;;;;20.25;72.08;99628.06;110048;1256;22960;-76
2022/08/16 03:47:11;;;;;;;17.50;16.00;;;;;;;20.27;72.11;99631.15;110039;1256;23063;-76
2022/08/16 03:49:40;;;;;;;19.00;17.10;;;;;;;20.28;72.01;99636.20;110403;1256;23757;-76
2022/08/16 03:52:12;;;;;;;19.50;17.00;;;;;;;20.28;72.04;99641.41;110525;1250;22999;-76
2022/08/16 03:54:44;;;;;;;19.00;17.30;;;;;;;20.29;72.08;99646.67;110634;1251;23046;-75
2022/08/16 03:57:28;;;;;;;17.80;16.20;;;;;;;20.29;72.07;99654.73;110543;1253;21994;-77
2022/08/16 04:00:13;;;;;;;19.50;17.50;;;;;;;20.30;72.09;99655.45;110759;1251;21950;-77
2022/08/16 04:03:08;;;;;;;21.40;17.40;;;;;;;20.32;72.09;99653.69;110474;1253;22028;-77
2022/08/16 04:05:49;;;;;;;19.30;17.50;;;;;;;20.34;72.18;99651.63;110521;1251;21971;-76
2022/08/16 04:08:24;;;;;;;18.60;16.80;;;;;;;20.35;71.93;99655.23;110636;1250;23029;-76
2022/08/16 04:10:58;;;;;;;18.90;17.20;;;;;;;20.36;71.92;99665.60;110754;1250;24905;-77
2022/08/16 04:13:30;;;;;;;20.60;18.40;;;;;;;20.37;72.18;99668.09;110669;1250;21953;-76
2022/08/16 04:16:19;;;;;;;21.90;19.70;;;;;;;20.38;72.10;99667.61;110690;1250;24278;-76
2022/08/16 04:19:03;;;;;;;19.10;17.50;;;;;;;20.39;72.20;99666.13;110654;1251;21977;-77
2022/08/16 04:21:35;;;;;;;20.30;18.20;;;;;;;20.41;72.14;99671.83;110718;1250;21984;-77
2022/08/16 04:24:18;;;;;;;20.10;18.10;;;;;;;20.42;72.01;99676.56;110704;1250;23674;-77
2022/08/16 04:26:47;;;;;;;20.70;18.80;;;;;;;20.42;71.95;99679.08;110638;1250;21968;-77
2022/08/16 04:29:18;;;;;;;21.60;19.80;;;;;;;20.41;71.88;99682.73;110728;1250;22006;-77
2022/08/16 04:31:54;;;;;;;21.60;19.60;;;;;;;20.43;72.12;99684.30;110727;1250;21970;-76
2022/08/16 04:34:34;;;;;;;23.00;20.90;;;;;;;20.48;72.30;99684.26;110783;1250;24265;-76
2022/08/16 04:37:06;;;;;;;21.80;19.50;;;;;;;20.53;72.17;99685.80;110456;1253;21961;-76
2022/08/16 04:39:39;;;;;;;20.00;18.00;;;;;;;20.57;72.02;99689.77;110654;1250;23700;-75
2022/08/16 04:42:24;;;;;;;20.10;18.00;;;;;;;20.60;72.08;99694.52;110673;1250;21955;-76
2022/08/16 04:45:04;;;;;;;21.00;19.00;;;;;;;20.67;72.03;99698.52;110651;1250;22919;-76
2022/08/16 04:47:34;;;;;;;20.40;18.40;;;;;;;20.74;72.07;99696.84;110669;1253;22734;-76
2022/08/16 04:50:14;;;;;;;21.90;19.80;;;;;;;20.80;71.92;99694.71;110748;1249;23025;-76
2022/08/16 04:53:17;;;;;;;20.90;18.80;;;;;;;20.86;71.86;99694.25;110277;1253;21964;-76
2022/08/16 04:55:50;;;;;;;24.50;20.40;;;;;;;20.94;71.65;99688.80;110675;1250;21971;-75
2022/08/16 04:58:23;;;;;;;24.30;21.90;;;;;;;21.00;71.43;99687.36;110583;1250;22772;-76
2022/08/16 05:01:12;;;;;;;23.80;21.70;;;;;;;21.06;71.26;99691.67;110707;1250;22994;-77
2022/08/16 05:03:44;;;;;;;24.90;22.50;;;;;;;21.11;70.93;99696.45;110736;1250;22006;-76
2022/08/16 05:06:40;;;;;;;22.90;20.80;;;;;;;21.17;70.89;99698.92;110927;1250;21992;-76
2022/08/16 05:09:39;;;;;;;21.80;19.80;;;;;;;21.26;70.75;99697.45;110478;1250;21956;-76
2022/08/16 05:12:17;;;;;;;23.60;21.50;;;;;;;21.33;70.47;99694.21;110690;1250;22401;-77
2022/08/16 05:14:59;;;;;;;22.80;20.90;;;;;;;21.45;70.41;99696.48;110684;1251;21948;-75
2022/08/16 05:17:31;;;;;;;23.20;21.00;;;;;;;21.54;70.04;99699.73;110899;1250;23109;-76
2022/08/16 05:20:04;;;;;;;23.10;20.60;;;;;;;21.62;69.74;99698.41;110517;1250;22246;-77
2022/08/16 05:22:56;;;;;;;21.10;19.20;;;;;;;21.70;69.61;99698.56;110547;1251;23704;-75
2022/08/16 05:25:26;;;;;;;22.20;20.00;;;;;;;21.81;69.36;99701.88;110804;1250;21961;-76
2022/08/16 05:28:10;;;;;;;20.80;18.80;;;;;;;21.93;69.29;99698.48;110717;1251;22740;-75
2022/08/16 05:30:45;;;;;;;21.50;18.40;;;;;;;22.05;68.91;99698.17;110675;1251;23701;-76
2022/08/16 05:33:24;;;;;;;20.00;18.00;;;;;;;22.18;68.58;99694.41;110496;1253;22299;-76
2022/08/16 05:35:56;;;;;;;18.80;17.40;;;;;;;22.28;67.96;99703.46;110694;1250;23020;-75
2022/08/16 05:38:30;;;;;;;17.80;16.20;;;;;;;22.36;67.40;99707.38;110705;1250;21965;-76
2022/08/16 05:41:09;;;;;;;21.60;16.50;;;;;;;22.47;67.14;99708.45;110809;1250;21953;-76
2022/08/16 05:43:44;;;;;;;19.40;16.90;;;;;;;22.60;66.70;99708.30;110873;1250;23177;-76
2022/08/16 05:46:21;;;;;;;18.20;16.40;;;;;;;22.76;66.51;99709.23;110737;1252;22994;-77
2022/08/16 05:49:01;;;;;;;18.70;16.60;;;;;;;22.92;66.21;99706.48;110689;1250;22782;-77
2022/08/16 05:51:36;;;;;;;17.80;16.00;;;;;;;23.10;65.91;99710.92;110753;1250;22765;-76
2022/08/16 05:54:11;;;;;;;17.60;16.20;;;;;;;23.28;65.20;99712.95;110797;1250;22739;-77
2022/08/16 05:56:47;;;;;;;16.20;14.90;;;;;;;23.47;64.75;99707.04;110519;1253;21981;-77
2022/08/16 05:59:18;;;;;;;17.40;15.40;;;;;;;23.66;64.30;99703.46;110726;1250;22006;-78
2022/08/16 06:01:50;;;;;;;19.10;17.40;;;;;;;23.90;64.20;99704.81;110550;1252;22275;-77
2022/08/16 06:04:26;;;;;;;16.60;14.90;;;;;;;24.18;63.47;99708.86;110731;1250;21955;-76
2022/08/16 06:07:06;;;;;;;18.70;13.10;;;;;;;24.47;63.06;99714.09;110692;1251;22714;-77
2022/08/16 06:09:58;;;;;;;15.70;13.60;;;;;;;24.85;61.96;99716.17;110705;1250;22587;-77
2022/08/16 06:12:29;;;;;;;18.40;13.20;;;;;;;25.20;60.91;99717.62;110711;1251;21962;-76
2022/08/16 06:15:11;;;;;;;13.70;12.50;;;;;;;25.58;60.21;99718.60;110776;1250;22981;-77
2022/08/16 06:17:45;;;;;;;;;;;;;;;26.02;59.00;99717.64;110376;1251;22961;-77
2022/08/16 06:20:25;;;;;;;16.00;12.90;;;;;;;26.41;58.66;99720.83;110752;1252;23551;-77
2022/08/16 06:23:12;;;;;;;14.00;12.50;;;;;;;26.91;57.52;99718.52;110637;1251;22989;-77
2022/08/16 06:26:07;;;;;;;13.70;11.60;;;;;;;27.28;56.08;99717.63;110703;1253;21943;-80
2022/08/16 06:28:41;;;;;;;14.80;11.70;;;;;;;27.70;55.46;99716.98;110695;1251;23085;-78
2022/08/16 06:31:16;;;;;;;20.00;11.20;;;;;;;28.15;53.53;99722.46;110486;1253;21966;-76
2022/08/16 06:33:52;;;;;;;15.40;9.30;;;;;;;28.42;51.76;99727.46;110650;1251;23593;-77
2022/08/16 06:36:22;;;;;;;8.10;7.40;;;;;;;28.73;51.60;99728.15;110648;1253;22404;-77
2022/08/16 06:38:59;;;;;;;7.30;6.50;;;;;;;29.06;49.74;99730.69;110574;1253;23583;-78
2022/08/16 06:41:40;;;;;;;6.70;6.10;;;;;;;29.25;48.22;99737.05;110661;1250;22947;-77
2022/08/16 06:44:19;;;;;;;8.80;7.60;;;;;;;29.42;48.03;99743.44;110741;1250;24284;-77
2022/08/16 06:46:50;;;;;;;10.50;8.10;;;;;;;29.65;47.63;99752.60;110774;1250;23672;-77
2022/08/16 06:49:20;;;;;;;8.70;7.20;;;;;;;29.88;47.32;99753.27;110678;1250;24494;-76
2022/08/16 06:51:49;;;;;;;8.00;7.20;;;;;;;30.12;46.61;99753.42;110750;1250;21932;-78
2022/08/16 06:54:24;;;;;;;8.30;6.90;;;;;;;30.41;45.89;99756.15;110524;1250;22421;-78
2022/08/16 06:56:53;;;;;;;9.50;7.40;;;;;;;30.72;44.76;99757.75;110890;1250;22075;-77
2022/08/16 06:59:23;;;;;;;8.60;7.80;;;;;;;30.93;43.78;99758.68;110868;1250;23706;-81
2022/08/16 07:01:58;;;;;;;7.90;6.80;;;;;;;31.06;43.51;99760.98;110793;1250;22031;-80
2022/08/16 07:04:28;;;;;;;;;;;;;;;31.15;43.04;99760.48;110888;1250;22301;-79
2022/08/16 07:07:12;;;;;;;8.00;6.80;;;;;;;31.29;43.16;99757.14;110812;1250;22980;-78
2022/08/16 07:09:43;;;;;;;;;;;;;;;31.43;42.90;99757.19;110999;1249;23684;-79
2022/08/16 07:12:13;;;;;;;8.60;6.30;;;;;;;31.51;42.48;99757.27;110899;1250;22547;-78
2022/08/16 07:14:46;;;;;;;13.00;8.10;;;;;;;31.59;42.41;99761.58;110788;1250;21961;-81
2022/08/16 07:17:20;;;;;;;9.00;8.00;;;;;;;31.66;42.67;99764.42;111191;1250;24143;-82
2022/08/16 07:19:55;;;;;;;11.60;8.40;;;;;;;31.77;42.18;99762.20;110572;1250;22730;-81
2022/08/16 07:22:50;;;;;;;7.00;6.40;;;;;;;31.88;41.22;99762.30;110785;1250;21962;-81
2022/08/16 07:25:34;;;;;;;7.90;6.60;;;;;;;32.02;40.98;99763.14;110810;1250;22919;-80
2022/08/16 07:28:14;;;;;;;8.30;6.60;;;;;;;32.19;40.99;99765.73;110761;1250;21962;-81
2022/08/16 07:30:53;;;;;;;8.70;6.60;;;;;;;32.30;40.32;99767.27;110607;1250;21969;-81
2022/08/16 07:33:43;;;;;;;12.10;6.60;;;;;;;32.47;40.18;99768.46;110853;1248;21959;-81
2022/08/16 07:36:22;;;;;;;7.10;6.40;;;;;;;32.71;40.09;99766.53;110757;1250;21965;-81
2022/08/16 07:38:52;;;;;;;9.60;7.20;;;;;;;32.93;39.82;99766.77;110817;1250;21962;-81
2022/08/16 07:41:21;;;;;;;8.70;5.90;;;;;;;32.91;38.78;99766.33;110712;1250;21966;-80
2022/08/16 07:43:54;;;;;;;7.50;6.80;;;;;;;32.82;38.77;99766.75;110731;1250;21959;-81
2022/08/16 07:46:24;;;;;;;7.40;6.80;;;;;;;32.82;38.64;99764.16;110585;1250;21964;-79
2022/08/16 07:49:13;;;;;;;12.10;8.50;;;;;;;32.87;39.00;99764.95;110633;1250;22739;-80
2022/08/16 07:51:42;;;;;;;10.90;8.70;;;;;;;33.10;38.98;99765.73;110943;1250;22261;-80
2022/08/16 07:54:11;;;;;;;7.80;7.10;;;;;;;33.34;38.40;99770.55;110761;1250;22365;-80
2022/08/16 07:57:01;;;;;;;7.50;6.00;;;;;;;33.39;37.59;99771.20;110890;1250;23734;-80
2022/08/16 07:59:30;;;;;;;8.20;7.20;;;;;;;33.38;37.62;99768.95;110635;1250;21952;-80
2022/08/16 08:02:15;;;;;;;9.10;7.00;;;;;;;33.43;37.30;99765.29;110744;1253;21921;-81
2022/08/16 08:04:51;;;;;;;7.90;7.20;;;;;;;33.54;37.62;99766.19;110643;1253;21925;-80
2022/08/16 08:07:20;;;;;;;7.10;6.40;;;;;;;33.72;37.05;99761.23;110653;1253;21968;-80
2022/08/16 08:09:51;;;;;;;6.70;6.10;;;;;;;33.65;35.92;99761.92;110901;1250;22202;-78
2022/08/16 08:12:21;;;;;;;8.80;7.90;;;;;;;33.58;36.65;99761.19;110475;1253;22259;-78
2022/08/16 08:15:11;;;;;;;10.20;7.30;;;;;;;33.71;36.91;99759.52;110847;1250;24503;-81
2022/08/16 08:17:43;;;;;;;10.50;8.50;;;;;;;33.84;36.84;99761.95;110930;1250;21962;-79
2022/08/16 08:20:21;;;;;;;9.10;8.30;;;;;;;34.04;36.91;99758.12;111013;1250;21982;-84
2022/08/16 08:22:59;;;;;;;9.70;8.70;;;;;;;34.29;36.60;99760.53;110979;1253;23681;-79
2022/08/16 08:25:50;;;;;;;11.70;8.30;;;;;;;34.53;36.02;99761.02;110631;1250;23588;-81
2022/08/16 08:28:24;;;;;;;11.20;8.50;;;;;;;34.67;35.41;99760.68;110534;1253;21968;-80
2022/08/16 08:31:02;;;;;;;10.80;7.60;;;;;;;34.70;34.80;99765.36;110730;1250;21959;-79
2022/08/16 08:33:40;;;;;;;9.30;8.40;;;;;;;34.59;34.89;99768.33;110754;1250;22933;-79
2022/08/16 08:36:24;;;;;;;8.40;7.70;;;;;;;34.49;35.81;99767.15;110748;1250;21962;-80
2022/08/16 08:39:08;;;;;;;12.40;7.50;;;;;;;34.60;35.98;99766.66;110780;1250;21977;-79
2022/08/16 08:41:43;;;;;;;8.80;7.20;;;;;;;34.77;35.62;99770.88;110754;1250;21991;-79
2022/08/16 08:44:19;;;;;;;8.50;7.70;;;;;;;34.91;35.30;99771.06;110756;1250;21959;-79
2022/08/16 08:47:01;;;;;;;9.00;8.20;;;;;;;35.03;35.58;99773.67;110715;1250;21967;-82
2022/08/16 08:49:38;;;;;;;10.00;8.50;;;;;;;35.24;35.27;99772.55;110703;1253;21934;-81
2022/08/16 08:52:25;;;;;;;10.10;8.20;;;;;;;35.38;34.71;99771.47;110732;1250;22993;-80
2022/08/16 08:55:09;;;;;;;9.90;9.10;;;;;;;35.50;34.15;99772.95;110864;1250;22052;-82
2022/08/16 08:57:46;;;;;;;8.30;7.50;;;;;;;35.54;33.65;99774.64;110626;1250;22048;-81
2022/08/16 09:00:27;;;;;;;8.70;6.70;;;;;;;35.49;33.57;99773.05;110800;1250;23703;-82
2022/08/16 09:03:00;;;;;;;8.20;7.00;;;;;;;35.47;33.34;99772.13;110779;1250;23668;-82
2022/08/16 09:05:35;;;;;;;8.30;7.40;;;;;;;35.43;33.45;99766.98;110948;1250;22768;-80
2022/08/16 09:08:10;;;;;;;9.10;7.40;;;;;;;35.42;33.34;99772.98;110877;1250;22008;-80
2022/08/16 09:10:54;;;;;;;14.10;7.60;;;;;;;35.46;33.71;99776.10;110856;1250;21965;-81
2022/08/16 09:13:34;;;;;;;9.50;8.60;;;;;;;35.63;33.49;99776.06;110965;1250;22960;-81
2022/08/16 09:16:04;;;;;;;12.00;11.10;;;;;;;35.68;32.53;99775.31;110889;1250;21961;-81
2022/08/16 09:18:33;;;;;;;12.80;8.60;;;;;;;35.72;33.03;99775.36;110819;1250;21990;-80
2022/08/16 09:21:06;;;;;;;9.60;6.90;;;;;;;35.85;33.11;99773.67;110861;1250;24281;-80
2022/08/16 09:23:38;;;;;;;11.40;7.70;;;;;;;35.98;33.08;99771.27;110806;1250;23719;-79
2022/08/16 09:26:14;;;;;;;12.30;7.80;;;;;;;35.95;32.85;99769.38;110825;1250;21970;-81
2022/08/16 09:29:03;;;;;;;15.10;12.10;;;;;;;35.89;33.24;99771.02;111073;1250;22648;-81
2022/08/16 09:31:47;;;;;;;9.80;8.80;;;;;;;35.79;34.11;99767.60;110566;1250;21961;-78
2022/08/16 09:34:22;;;;;;;13.60;10.20;;;;;;;35.80;33.99;99770.79;110945;1250;21957;-80
2022/08/16 09:36:50;;;;;;;11.10;9.60;;;;;;;35.87;33.67;99768.46;110971;1250;23567;-80
2022/08/16 09:39:26;;;;;;;8.90;8.10;;;;;;;35.83;33.28;99767.51;110773;1250;21957;-80
2022/08/16 09:42:13;;;;;;;8.80;8.00;;;;;;;35.73;33.37;99762.36;110805;1250;21962;-80
2022/08/16 09:44:43;;;;;;;10.00;8.90;;;;;;;35.67;33.60;99765.40;110756;1250;23571;-82
2022/08/16 09:47:32;;;;;;;7.40;6.70;;;;;;;35.56;34.41;99765.64;110936;1250;21946;-80
2022/08/16 09:50:22;;;;;;;9.10;7.30;;;;;;;35.33;34.24;99766.92;110937;1250;22334;-80
2022/08/16 09:52:53;;;;;;;8.80;7.00;;;;;;;35.28;34.60;99767.58;110778;1250;21954;-81
2022/08/16 09:55:22;;;;;;;;;;;;;;;35.25;34.70;99765.20;111075;1250;22872;-80
2022/08/16 09:57:53;;;;;;;9.70;6.80;;;;;;;35.20;34.54;99766.07;110818;1250;21977;-80
2022/08/16 10:00:25;;;;;;;9.80;6.60;;;;;;;35.27;34.61;99765.02;110936;1250;23548;-79
2022/08/16 10:03:13;;;;;;;10.80;6.70;;;;;;;35.37;34.08;99768.06;111069;1250;21962;-80
2022/08/16 10:05:43;;;;;;;9.40;7.00;;;;;;;35.40;33.66;99772.70;110598;1253;21982;-80
2022/08/16 10:08:13;;;;;;;17.30;7.00;;;;;;;35.33;32.99;99770.63;110703;1253;23060;-83
2022/08/16 10:13:51;;;;;;;12.40;10.50;;;;;;;34.83;34.01;99774.38;110545;1253;23673;-82
2022/08/16 10:16:21;;;;;;;10.80;7.20;;;;;;;34.44;35.04;99774.42;110033;1259;22013;-80
2022/08/16 10:18:51;;;;;;;8.20;7.30;;;;;;;34.29;35.28;99778.15;110126;1259;21968;-79
2022/08/16 10:21:34;;;;;;;7.20;6.50;;;;;;;34.21;35.25;99782.65;109594;1263;21975;-80
2022/08/16 10:24:03;;;;;;;8.10;6.40;;;;;;;34.27;35.09;99783.74;109792;1261;23012;-83
2022/08/16 10:26:32;;;;;;;7.60;6.70;;;;;;;34.30;34.99;99788.60;110203;1259;23684;-80
2022/08/16 10:29:22;;;;;;;7.20;6.50;;;;;;;34.35;34.01;99787.23;110096;1259;23037;-81
2022/08/16 10:31:51;;;;;;;7.40;6.80;;;;;;;34.36;33.15;99787.31;110257;1259;22122;-81
2022/08/16 10:34:22;;;;;;;7.70;7.00;;;;;;;34.24;33.87;99785.11;110352;1256;21961;-81
2022/08/16 10:37:01;;;;;;;6.70;5.80;;;;;;;34.14;34.04;99785.34;110468;1256;22057;-80
2022/08/16 10:39:30;;;;;;;7.70;7.00;;;;;;;34.13;33.45;99781.23;110578;1250;23771;-82
2022/08/16 10:42:10;;;;;;;7.30;6.70;;;;;;;34.07;33.57;99781.19;110986;1250;21980;-79
2022/08/16 10:44:41;;;;;;;6.90;6.30;;;;;;;33.97;34.32;99781.77;110292;1257;21973;-81
2022/08/16 10:47:21;;;;;;;8.60;6.30;;;;;;;33.89;34.09;99782.55;110540;1253;22614;-80
2022/08/16 10:49:50;;;;;;;19.60;7.70;;;;;;;33.78;34.02;99781.85;110513;1253;23025;-82
2022/08/16 10:52:19;;;;;;;17.30;8.00;;;;;;;33.73;34.89;99779.64;110516;1253;23409;-79
2022/08/16 10:54:52;;;;;;;8.00;7.30;;;;;;;33.70;34.76;99781.59;110633;1253;21959;-77
2022/08/16 10:57:41;;;;;;;7.60;6.90;;;;;;;33.66;34.15;99777.02;110452;1253;24563;-80
2022/08/16 11:00:15;;;;;;;7.70;6.80;;;;;;;33.47;33.61;99781.12;110515;1253;22373;-80
2022/08/16 11:02:51;;;;;;;7.90;7.20;;;;;;;33.14;34.03;99775.02;110325;1253;21979;-82
2022/08/16 11:05:42;;;;;;;8.50;7.60;;;;;;;32.80;34.76;99772.81;110735;1253;23055;-78
2022/08/16 11:08:27;;;;;;;7.90;7.10;;;;;;;32.61;35.37;99768.16;110713;1253;22966;-82
2022/08/16 11:11:06;;;;;;;8.10;6.50;;;;;;;32.54;36.05;99768.19;110531;1253;21957;-79
2022/08/16 11:13:47;;;;;;;8.80;8.00;;;;;;;32.53;36.20;99769.94;110493;1253;23687;-80
2022/08/16 11:16:36;;;;;;;7.70;7.00;;;;;;;32.48;36.49;99769.13;110536;1253;21959;-79
2022/08/16 11:19:25;;;;;;;8.90;7.90;;;;;;;32.39;36.95;99769.52;110513;1253;22250;-81
2022/08/16 11:21:59;;;;;;;7.80;7.10;;;;;;;32.29;37.04;99771.38;110550;1253;23711;-82
2022/08/16 11:24:48;;;;;;;7.50;6.80;;;;;;;32.12;36.83;99769.38;110529;1253;21964;-82
2022/08/16 11:27:37;;;;;;;7.70;7.10;;;;;;;31.86;37.18;99771.31;110749;1253;22755;-80
2022/08/16 11:30:10;;;;;;;9.20;8.30;;;;;;;31.67;37.55;99770.71;110595;1256;23674;-79
2022/08/16 11:32:43;;;;;;;20.30;8.80;;;;;;;31.52;37.87;99775.52;110485;1255;21967;-80
2022/08/16 11:35:22;;;;;;;8.20;7.50;;;;;;;31.36;37.96;99777.33;110568;1253;21965;-81
2022/08/16 11:38:20;;;;;;;8.10;7.30;;;;;;;31.17;38.03;99772.58;111129;1251;21982;-81
2022/08/16 11:41:04;;;;;;;8.70;7.90;;;;;;;31.02;38.35;99769.49;110511;1255;22245;-82
2022/08/16 11:43:39;;;;;;;9.20;8.30;;;;;;;30.94;38.51;99766.13;110519;1253;22864;-81
2022/08/16 11:46:13;;;;;;;10.00;8.80;;;;;;;30.84;38.78;99760.89;110698;1250;21962;-78
2022/08/16 11:49:03;;;;;;;9.80;8.80;;;;;;;30.74;39.67;99754.10;110524;1250;23030;-79
2022/08/16 11:51:42;;;;;;;7.90;6.30;;;;;;;30.67;39.82;99751.11;110702;1250;22729;-79
2022/08/16 11:54:13;;;;;;;8.40;7.70;;;;;;;30.61;39.77;99749.33;110552;1250;21931;-79
2022/08/16 11:56:50;;;;;;;7.10;6.40;;;;;;;30.55;39.94;99749.19;110713;1250;23479;-77
2022/08/16 11:59:28;;;;;;;8.20;7.40;;;;;;;30.54;40.15;99748.16;110721;1250;21965;-77
2022/08/16 12:01:57;;;;;;;9.20;8.20;;;;;;;30.58;40.27;99748.02;110739;1253;21973;-77
2022/08/16 12:04:28;;;;;;;12.40;11.20;;;;;;;30.62;40.01;99748.48;110500;1253;23668;-78
2022/08/16 12:06:57;;;;;;;11.20;10.10;;;;;;;30.66;39.57;99748.26;110566;1253;21959;-77
2022/08/16 12:09:27;;;;;;;10.20;9.10;;;;;;;30.60;39.75;99749.13;110627;1253;21962;-78